Time;durP1;ratioP1;P1;durP2;ratioP2;P2;SDS_P1;SDS_P2;PMS_P1;PMS_P2;Temp;Humidity;BMP_temperature;BMP_pressure;BME280_temperature;BME280_humidity;BME280_pressure;Samples;Min_cycle;Max_cycle;Signal;HPM_P1;HPM_P2
2021/06/02 00:02:03;;;;;;;20.30;7.05;;;;;;;;;;4994873;28;20026;-59
2021/06/02 00:04:31;;;;;;;13.95;6.60;;;;;;;;;;4977295;28;20089;-60
2021/06/02 00:06:59;;;;;;;14.40;7.00;;;;;;;;;;4994656;28;20038;-61
2021/06/02 00:09:26;;;;;;;12.07;5.93;;;;;;;;;;4994757;28;20093;-59
2021/06/02 00:11:56;;;;;;;7.73;3.93;;;;;;;;;;4986836;28;20022;-59
2021/06/02 00:14:24;;;;;;;8.30;4.77;;;;;;;;;;4994519;28;20030;-59
2021/06/02 00:16:51;;;;;;;19.30;7.77;;;;;;;;;;4994504;28;20035;-60
2021/06/02 00:19:18;;;;;;;13.70;6.73;;;;;;;;;;4994914;28;20484;-60
2021/06/02 00:21:45;;;;;;;20.60;7.67;;;;;;;;;;4994488;28;20385;-59
2021/06/02 00:24:11;;;;;;;14.53;6.97;;;;;;;;;;4994480;28;20026;-59
2021/06/02 00:26:39;;;;;;;12.37;6.37;;;;;;;;;;4993534;28;20035;-59
2021/06/02 00:29:07;;;;;;;10.27;5.90;;;;;;;;;;4996067;28;20088;-59
2021/06/02 00:31:37;;;;;;;15.33;6.57;;;;;;;;;;4994487;28;20037;-60
2021/06/02 00:34:05;;;;;;;11.10;5.93;;;;;;;;;;4994129;28;20030;-60
2021/06/02 00:36:32;;;;;;;10.63;5.97;;;;;;;;;;4994470;28;20030;-60
2021/06/02 00:39:00;;;;;;;13.57;6.07;;;;;;;;;;4994015;28;20048;-60
2021/06/02 00:41:28;;;;;;;8.07;5.67;;;;;;;;;;4994101;28;20034;-59
2021/06/02 00:43:55;;;;;;;12.30;5.23;;;;;;;;;;4994097;28;20023;-58
2021/06/02 00:46:22;;;;;;;8.57;5.83;;;;;;;;;;4993832;28;20056;-60
2021/06/02 00:48:49;;;;;;;10.57;5.33;;;;;;;;;;4994004;28;20029;-60
2021/06/02 00:51:30;;;;;;;6.40;4.83;;;;;;;;;;4993868;28;20109;-60
2021/06/02 00:53:57;;;;;;;11.37;5.10;;;;;;;;;;4993907;28;20036;-60
2021/06/02 00:56:29;;;;;;;13.43;6.17;;;;;;;;;;4993910;28;20014;-59
2021/06/02 00:58:58;;;;;;;11.13;6.30;;;;;;;;;;4993758;28;20133;-59
2021/06/02 01:01:25;;;;;;;13.00;6.23;;;;;;;;;;4993821;28;20097;-59
2021/06/02 01:03:53;;;;;;;12.17;6.20;;;;;;;;;;4993751;28;20034;-59
2021/06/02 01:06:20;;;;;;;11.83;7.07;;;;;;;;;;4993633;28;20034;-59
2021/06/02 01:08:48;;;;;;;12.33;6.00;;;;;;;;;;4993668;28;20026;-59
2021/06/02 01:11:16;;;;;;;12.80;7.03;;;;;;;;;;4993600;28;20042;-59
2021/06/02 01:13:43;;;;;;;20.80;7.03;;;;;;;;;;4993593;28;20045;-59
2021/06/02 01:16:10;;;;;;;13.93;7.23;;;;;;;;;;4993661;28;20142;-59
2021/06/02 01:18:37;;;;;;;10.77;6.87;;;;;;;;;;4993544;28;20030;-59
2021/06/02 01:21:10;;;;;;;12.13;6.43;;;;;;;;;;4993527;28;20037;-59
2021/06/02 01:23:37;;;;;;;9.40;5.57;;;;;;;;;;4993410;28;20033;-58
2021/06/02 01:26:04;;;;;;;11.63;6.03;;;;;;;;;;4993321;28;20085;-59
2021/06/02 01:28:32;;;;;;;7.97;5.47;;;;;;;;;;4993895;28;20213;-58
2021/06/02 01:30:58;;;;;;;9.57;5.77;;;;;;;;;;4993229;28;20054;-58
2021/06/02 01:33:25;;;;;;;9.93;5.80;;;;;;;;;;4993334;28;20421;-58
2021/06/02 01:36:07;;;;;;;10.77;5.33;;;;;;;;;;4985421;28;20492;-59
2021/06/02 01:38:45;;;;;;;10.93;6.20;;;;;;;;;;4992207;28;20042;-58
2021/06/02 01:41:21;;;;;;;10.50;6.23;;;;;;;;;;4993345;28;20042;-59
2021/06/02 01:43:48;;;;;;;9.60;6.70;;;;;;;;;;4993404;28;20050;-58
2021/06/02 01:46:14;;;;;;;10.60;6.70;;;;;;;;;;4993157;28;20098;-58
2021/06/02 01:48:50;;;;;;;12.23;6.50;;;;;;;;;;4993641;28;20031;-58
2021/06/02 01:51:35;;;;;;;9.27;5.77;;;;;;;;;;4993184;28;20038;-58
2021/06/02 01:54:18;;;;;;;8.20;5.47;;;;;;;;;;4993234;28;20038;-58
2021/06/02 01:56:45;;;;;;;7.40;5.27;;;;;;;;;;4993139;28;20390;-58
2021/06/02 01:59:25;;;;;;;8.20;5.80;;;;;;;;;;4993134;28;20485;-58
2021/06/02 02:01:55;;;;;;;9.50;6.80;;;;;;;;;;4985099;28;20038;-58
2021/06/02 02:04:41;;;;;;;7.57;5.07;;;;;;;;;;4993039;28;20045;-58
2021/06/02 02:07:43;;;;;;;11.33;5.97;;;;;;;;;;4993147;28;20042;-58
2021/06/02 02:10:09;;;;;;;9.73;6.70;;;;;;;;;;4895163;29;20469;-58
2021/06/02 02:12:36;;;;;;;14.60;8.03;;;;;;;;;;4967571;28;20030;-58
2021/06/02 02:15:21;;;;;;;14.87;6.87;;;;;;;;;;4992960;28;20029;-58
2021/06/02 02:18:00;;;;;;;11.18;7.32;;;;;;;;;;4992913;28;20355;-58
2021/06/02 02:20:33;;;;;;;8.07;6.30;;;;;;;;;;4993089;28;20035;-58
2021/06/02 02:23:12;;;;;;;10.43;6.73;;;;;;;;;;4992942;28;20018;-58
2021/06/02 02:25:38;;;;;;;9.37;6.70;;;;;;;;;;4992934;28;20500;-58
2021/06/02 02:28:08;;;;;;;12.70;7.50;;;;;;;;;;4993113;28;20429;-58
2021/06/02 02:30:53;;;;;;;16.37;9.30;;;;;;;;;;4994738;28;20050;-58
2021/06/02 02:33:20;;;;;;;;;;;;;;;;;;4993446;28;20037;-58
2021/06/02 02:35:52;;;;;;;15.33;7.87;;;;;;;;;;4992782;28;19928;-58
2021/06/02 02:38:19;;;;;;;15.60;9.40;;;;;;;;;;4992738;28;20438;-58
2021/06/02 02:41:04;;;;;;;14.83;8.23;;;;;;;;;;4992848;28;20082;-58
2021/06/02 02:43:32;;;;;;;;;;;;;;;;;;4993184;28;20038;-58
2021/06/02 02:45:59;;;;;;;15.63;7.97;;;;;;;;;;4992770;28;19942;-58
2021/06/02 02:48:37;;;;;;;15.93;7.87;;;;;;;;;;4992750;28;20105;-58
2021/06/02 02:51:22;;;;;;;10.37;8.00;;;;;;;;;;4996252;28;20424;-58
2021/06/02 02:54:02;;;;;;;11.60;8.10;;;;;;;;;;4996145;28;20054;-58
2021/06/02 02:56:42;;;;;;;12.83;7.70;;;;;;;;;;4996261;28;20030;-58
2021/06/02 02:59:26;;;;;;;17.23;7.60;;;;;;;;;;4996067;28;20018;-58
2021/06/02 03:01:55;;;;;;;10.90;7.05;;;;;;;;;;4996097;28;20050;-58
2021/06/02 03:04:23;;;;;;;11.23;6.43;;;;;;;;;;4996135;28;20034;-58
2021/06/02 03:07:01;;;;;;;10.50;6.93;;;;;;;;;;4995903;28;20045;-58
2021/06/02 03:09:31;;;;;;;18.97;7.83;;;;;;;;;;4995894;28;20027;-58
2021/06/02 03:11:57;;;;;;;12.83;6.50;;;;;;;;;;4996048;28;20504;-58
2021/06/02 03:14:36;;;;;;;11.03;7.57;;;;;;;;;;4995718;28;20082;-58
2021/06/02 03:17:07;;;;;;;10.90;7.60;;;;;;;;;;4995387;28;20082;-58
2021/06/02 03:19:42;;;;;;;10.43;7.50;;;;;;;;;;4995441;28;20496;-58
2021/06/02 03:22:13;;;;;;;13.38;7.57;;;;;;;;;;4995588;28;20030;-58
2021/06/02 03:24:49;;;;;;;10.63;6.60;;;;;;;;;;4995365;28;20266;-58
2021/06/02 03:27:29;;;;;;;12.10;6.93;;;;;;;;;;4995505;28;20034;-58
2021/06/02 03:30:08;;;;;;;14.30;7.27;;;;;;;;;;4988333;28;20043;-58
2021/06/02 03:32:53;;;;;;;14.80;7.57;;;;;;;;;;4975883;28;20035;-58
2021/06/02 03:35:46;;;;;;;12.02;7.95;;;;;;;;;;4975841;28;20030;-58
2021/06/02 03:38:15;;;;;;;13.60;8.50;;;;;;;;;;4933333;28;20026;-58
2021/06/02 03:40:42;;;;;;;11.27;7.30;;;;;;;;;;4975792;28;20035;-58
2021/06/02 03:43:38;;;;;;;12.03;7.87;;;;;;;;;;4975787;28;20031;-58
2021/06/02 03:46:23;;;;;;;9.47;6.67;;;;;;;;;;4955466;28;20047;-58
2021/06/02 03:49:10;;;;;;;11.93;6.68;;;;;;;;;;4958433;28;20034;-58
2021/06/02 03:51:54;;;;;;;13.90;7.17;;;;;;;;;;4958121;28;20034;-58
2021/06/02 03:54:27;;;;;;;13.05;7.57;;;;;;;;;;4975540;28;20051;-58
2021/06/02 03:57:06;;;;;;;12.17;7.50;;;;;;;;;;4975593;28;20117;-58
2021/06/02 03:59:33;;;;;;;11.67;7.73;;;;;;;;;;4975359;28;20043;-58
2021/06/02 04:02:03;;;;;;;11.87;7.13;;;;;;;;;;4975401;28;20042;-58
2021/06/02 04:04:41;;;;;;;10.03;7.53;;;;;;;;;;4975399;28;20030;-58
2021/06/02 04:07:09;;;;;;;9.43;6.63;;;;;;;;;;4975286;28;20473;-58
2021/06/02 04:09:56;;;;;;;10.60;7.43;;;;;;;;;;4975270;28;20019;-58
2021/06/02 04:12:26;;;;;;;12.13;7.03;;;;;;;;;;4924382;28;20038;-58
2021/06/02 04:15:04;;;;;;;12.60;7.10;;;;;;;;;;4975080;28;20113;-58
2021/06/02 04:17:32;;;;;;;12.93;7.70;;;;;;;;;;4975176;28;20093;-58
2021/06/02 04:20:01;;;;;;;9.10;6.67;;;;;;;;;;4975132;28;20478;-58
2021/06/02 04:22:29;;;;;;;12.53;7.03;;;;;;;;;;4975028;28;20026;-58
2021/06/02 04:24:56;;;;;;;15.83;7.83;;;;;;;;;;4957602;28;20023;-58
2021/06/02 04:27:22;;;;;;;14.60;8.23;;;;;;;;;;4975082;28;20061;-58
2021/06/02 04:29:51;;;;;;;11.97;7.90;;;;;;;;;;4977611;28;20054;-58
2021/06/02 04:32:18;;;;;;;14.83;7.70;;;;;;;;;;4974875;28;20093;-58
2021/06/02 04:34:46;;;;;;;13.43;7.80;;;;;;;;;;4974715;28;20054;-58
2021/06/02 04:37:13;;;;;;;12.77;7.40;;;;;;;;;;4974831;28;20489;-58
2021/06/02 04:39:41;;;;;;;9.23;6.47;;;;;;;;;;4975051;28;20382;-58
2021/06/02 04:42:09;;;;;;;9.20;6.40;;;;;;;;;;4974823;28;20078;-58
2021/06/02 04:44:36;;;;;;;13.77;7.93;;;;;;;;;;4974583;28;20077;-58
2021/06/02 04:47:04;;;;;;;9.87;6.27;;;;;;;;;;4974374;28;20383;-58
2021/06/02 04:49:54;;;;;;;14.00;6.67;;;;;;;;;;4974539;28;20493;-58
2021/06/02 04:52:40;;;;;;;12.80;7.37;;;;;;;;;;4974730;28;20023;-58
2021/06/02 04:55:07;;;;;;;14.37;8.37;;;;;;;;;;4974572;28;20027;-58
2021/06/02 04:57:52;;;;;;;11.37;6.93;;;;;;;;;;4974558;28;20029;-58
2021/06/02 05:00:38;;;;;;;12.37;6.87;;;;;;;;;;4957137;28;20031;-58
2021/06/02 05:03:29;;;;;;;9.27;6.40;;;;;;;;;;4974418;28;20118;-58
2021/06/02 05:06:12;;;;;;;9.83;7.30;;;;;;;;;;4974217;28;20371;-58
2021/06/02 05:08:49;;;;;;;11.00;7.23;;;;;;;;;;4974229;28;20058;-58
2021/06/02 05:11:34;;;;;;;9.60;6.40;;;;;;;;;;4974065;28;20470;-58
2021/06/02 05:14:31;;;;;;;9.82;5.85;;;;;;;;;;4974280;28;20027;-58
2021/06/02 05:17:03;;;;;;;10.73;6.50;;;;;;;;;;4974206;28;20065;-58
2021/06/02 05:22:37;;;;;;;8.93;5.97;;;;;;;;;;4974491;28;20113;-58
2021/06/02 05:25:22;;;;;;;12.63;6.60;;;;;;;;;;4974033;28;20037;-58
2021/06/02 05:28:21;;;;;;;10.35;6.38;;;;;;;;;;4974227;28;20038;-58
2021/06/02 05:31:07;;;;;;;14.07;7.27;;;;;;;;;;4990685;28;20050;-58
2021/06/02 05:33:52;;;;;;;14.23;6.18;;;;;;;;;;4993468;28;20026;-58
2021/06/02 05:36:37;;;;;;;11.38;5.82;;;;;;;;;;4993572;28;20061;-58
2021/06/02 05:39:22;;;;;;;10.82;6.43;;;;;;;;;;4993370;28;20038;-58
2021/06/02 05:41:49;;;;;;;9.05;5.30;;;;;;;;;;4993447;28;20105;-58
2021/06/02 05:44:21;;;;;;;10.53;6.87;;;;;;;;;;4993363;28;20033;-58
2021/06/02 05:47:06;;;;;;;8.47;5.90;;;;;;;;;;4993303;28;20038;-58
2021/06/02 05:49:43;;;;;;;11.68;5.93;;;;;;;;;;4993245;28;20036;-58
2021/06/02 05:52:19;;;;;;;9.73;6.27;;;;;;;;;;4993218;28;20015;-58
2021/06/02 05:54:49;;;;;;;10.93;7.10;;;;;;;;;;4993136;28;20026;-58
2021/06/02 05:57:15;;;;;;;9.00;6.17;;;;;;;;;;4993133;28;20031;-58
2021/06/02 05:59:45;;;;;;;10.27;5.77;;;;;;;;;;4993114;28;20049;-58
2021/06/02 06:02:24;;;;;;;10.67;6.23;;;;;;;;;;4993073;28;20109;-58
2021/06/02 06:05:03;;;;;;;9.83;5.20;;;;;;;;;;4993364;28;20027;-58
2021/06/02 06:07:52;;;;;;;8.67;5.60;;;;;;;;;;4993022;28;20034;-58
2021/06/02 06:10:37;;;;;;;9.37;5.60;;;;;;;;;;4993172;28;20480;-58
2021/06/02 06:13:26;;;;;;;8.77;5.75;;;;;;;;;;4993141;28;20154;-57
2021/06/02 06:16:14;;;;;;;7.67;5.03;;;;;;;;;;4992849;28;20117;-57
2021/06/02 06:18:44;;;;;;;9.83;5.83;;;;;;;;;;4993236;28;20031;-58
2021/06/02 06:21:29;;;;;;;13.10;6.90;;;;;;;;;;4993054;28;20030;-57
2021/06/02 06:24:34;;;;;;;8.55;6.30;;;;;;;;;;4993720;28;20054;-57
2021/06/02 06:27:27;;;;;;;7.93;5.00;;;;;;;;;;4898573;29;20077;-58
2021/06/02 06:30:12;;;;;;;9.60;6.37;;;;;;;;;;4873968;28;20078;-57
2021/06/02 06:32:40;;;;;;;9.47;6.63;;;;;;;;;;4956628;28;20163;-58
2021/06/02 06:35:07;;;;;;;9.20;5.17;;;;;;;;;;4977014;28;20371;-59
2021/06/02 06:37:38;;;;;;;15.97;6.27;;;;;;;;;;4976961;28;20445;-58
2021/06/02 06:40:07;;;;;;;8.50;6.07;;;;;;;;;;4977015;28;20422;-59
2021/06/02 06:42:40;;;;;;;8.13;5.90;;;;;;;;;;4977344;28;20106;-58
2021/06/02 06:45:12;;;;;;;10.97;7.00;;;;;;;;;;4976754;28;20427;-58
2021/06/02 06:47:40;;;;;;;8.63;5.90;;;;;;;;;;4976955;28;20027;-58
2021/06/02 06:50:09;;;;;;;8.20;5.93;;;;;;;;;;4976703;28;20052;-58
2021/06/02 06:52:36;;;;;;;9.77;5.57;;;;;;;;;;4976880;28;20054;-58
2021/06/02 06:55:05;;;;;;;12.13;5.27;;;;;;;;;;4976662;28;20050;-58
2021/06/02 06:57:33;;;;;;;10.80;5.63;;;;;;;;;;4976670;28;20039;-58
2021/06/02 07:00:00;;;;;;;10.50;5.53;;;;;;;;;;4976653;28;20118;-58
2021/06/02 07:02:28;;;;;;;8.90;5.23;;;;;;;;;;4976556;28;20039;-58
2021/06/02 07:04:55;;;;;;;8.03;5.30;;;;;;;;;;4976519;28;20664;-58
2021/06/02 07:07:22;;;;;;;8.57;5.10;;;;;;;;;;4976367;28;20054;-58
2021/06/02 07:09:49;;;;;;;9.90;5.17;;;;;;;;;;4976434;28;20031;-58
2021/06/02 07:12:21;;;;;;;11.00;6.27;;;;;;;;;;4976518;28;20088;-58
2021/06/02 07:14:50;;;;;;;8.27;4.87;;;;;;;;;;4976455;28;20038;-58
2021/06/02 07:17:17;;;;;;;6.43;4.20;;;;;;;;;;4976202;28;20027;-58
2021/06/02 07:19:54;;;;;;;9.50;5.10;;;;;;;;;;4976219;28;20106;-58
2021/06/02 07:22:23;;;;;;;7.50;4.53;;;;;;;;;;4976231;28;20026;-58
2021/06/02 07:24:59;;;;;;;9.60;5.50;;;;;;;;;;4976138;28;20117;-58
2021/06/02 07:27:27;;;;;;;11.47;4.80;;;;;;;;;;4976172;28;20114;-58
2021/06/02 07:29:54;;;;;;;10.80;5.30;;;;;;;;;;4983436;28;20043;-58
2021/06/02 07:32:21;;;;;;;9.60;4.80;;;;;;;;;;4995517;28;20030;-58
2021/06/02 07:34:47;;;;;;;8.33;4.57;;;;;;;;;;4994817;28;20385;-58
2021/06/02 07:37:14;;;;;;;8.00;5.13;;;;;;;;;;4995225;28;20082;-58
2021/06/02 07:39:41;;;;;;;11.93;4.90;;;;;;;;;;4977946;28;20481;-58
2021/06/02 07:42:08;;;;;;;5.77;4.27;;;;;;;;;;4995415;28;20070;-58
2021/06/02 07:44:35;;;;;;;8.73;5.30;;;;;;;;;;4995115;28;20109;-58
2021/06/02 07:47:02;;;;;;;9.47;5.63;;;;;;;;;;4995137;28;20242;-58
2021/06/02 07:49:28;;;;;;;9.07;4.97;;;;;;;;;;4995151;28;20102;-58
2021/06/02 07:51:59;;;;;;;11.30;4.50;;;;;;;;;;4995184;28;20018;-58
2021/06/02 07:54:26;;;;;;;11.40;5.87;;;;;;;;;;4995075;28;20350;-57
2021/06/02 07:56:53;;;;;;;8.23;5.13;;;;;;;;;;4995087;28;20041;-58
2021/06/02 07:59:20;;;;;;;11.10;5.23;;;;;;;;;;4994984;28;20477;-58
2021/06/02 08:01:48;;;;;;;10.57;5.33;;;;;;;;;;4994974;28;20057;-58
2021/06/02 08:04:14;;;;;;;8.00;4.60;;;;;;;;;;4994791;28;20072;-58
2021/06/02 08:06:41;;;;;;;10.23;5.27;;;;;;;;;;4994917;28;20030;-58
2021/06/02 08:09:11;;;;;;;11.60;4.97;;;;;;;;;;4994865;28;20018;-58
2021/06/02 08:11:38;;;;;;;9.23;5.00;;;;;;;;;;4994660;28;20034;-58
2021/06/02 08:14:04;;;;;;;8.47;4.83;;;;;;;;;;4994707;28;20054;-58
2021/06/02 08:16:31;;;;;;;9.97;5.87;;;;;;;;;;4994777;28;20385;-58
2021/06/02 08:18:58;;;;;;;8.33;5.60;;;;;;;;;;4994428;28;20393;-58
2021/06/02 08:21:25;;;;;;;12.80;5.70;;;;;;;;;;4994656;28;20409;-58
2021/06/02 08:23:51;;;;;;;8.27;5.03;;;;;;;;;;4994492;28;20054;-58
2021/06/02 08:26:18;;;;;;;11.10;5.07;;;;;;;;;;4994392;28;20042;-58
2021/06/02 08:28:45;;;;;;;11.07;4.93;;;;;;;;;;4994373;28;20023;-58
2021/06/02 08:31:12;;;;;;;10.33;4.70;;;;;;;;;;4996166;28;20535;-58
2021/06/02 08:33:38;;;;;;;9.73;4.93;;;;;;;;;;4994197;28;20031;-58
2021/06/02 08:36:06;;;;;;;12.23;5.13;;;;;;;;;;4994332;28;20069;-58
2021/06/02 08:38:32;;;;;;;9.43;5.03;;;;;;;;;;4994198;28;20034;-58
2021/06/02 08:40:59;;;;;;;7.40;4.33;;;;;;;;;;4994151;28;20034;-58
2021/06/02 08:43:26;;;;;;;6.83;4.63;;;;;;;;;;4994194;28;20026;-58
2021/06/02 08:45:56;;;;;;;10.53;4.70;;;;;;;;;;4993838;28;20426;-56
2021/06/02 08:48:24;;;;;;;7.90;4.80;;;;;;;;;;4993828;28;20113;-56
2021/06/02 08:50:50;;;;;;;8.53;4.90;;;;;;;;;;4994192;28;20286;-58
2021/06/02 08:53:18;;;;;;;8.93;4.83;;;;;;;;;;4993955;28;20026;-58
2021/06/02 08:55:45;;;;;;;8.67;4.53;;;;;;;;;;4994152;28;20030;-58
2021/06/02 08:58:19;;;;;;;7.43;4.13;;;;;;;;;;4993964;28;20026;-58
2021/06/02 09:00:46;;;;;;;7.77;4.53;;;;;;;;;;4993885;28;20026;-58
2021/06/02 09:03:13;;;;;;;10.13;5.47;;;;;;;;;;4993839;28;20033;-58
2021/06/02 09:05:40;;;;;;;6.70;4.80;;;;;;;;;;4993730;28;20077;-58
2021/06/02 09:08:08;;;;;;;7.83;4.97;;;;;;;;;;4993765;28;20033;-58
2021/06/02 09:10:39;;;;;;;8.87;5.13;;;;;;;;;;4993793;28;20054;-58
2021/06/02 09:13:14;;;;;;;8.47;4.77;;;;;;;;;;4993774;28;20026;-58
2021/06/02 09:15:43;;;;;;;8.70;4.50;;;;;;;;;;4993727;28;20369;-58
2021/06/02 09:18:15;;;;;;;7.57;4.60;;;;;;;;;;4993632;28;20029;-57
2021/06/02 09:20:46;;;;;;;7.27;4.73;;;;;;;;;;4993734;28;20053;-58
2021/06/02 09:23:29;;;;;;;8.17;4.80;;;;;;;;;;4993501;28;20385;-57
2021/06/02 09:25:59;;;;;;;7.03;4.73;;;;;;;;;;4993565;28;20034;-58
2021/06/02 09:28:48;;;;;;;7.37;4.87;;;;;;;;;;4993478;28;20027;-58
2021/06/02 09:31:24;;;;;;;6.20;4.37;;;;;;;;;;4952186;28;20505;-58
2021/06/02 09:33:50;;;;;;;9.57;4.27;;;;;;;;;;4973969;28;20052;-57
2021/06/02 09:36:17;;;;;;;7.93;4.33;;;;;;;;;;4973975;28;20085;-58
2021/06/02 09:38:52;;;;;;;7.57;4.10;;;;;;;;;;4974214;28;20061;-58
2021/06/02 09:41:19;;;;;;;7.72;4.00;;;;;;;;;;4973932;28;20054;-58
2021/06/02 09:43:46;;;;;;;10.63;4.50;;;;;;;;;;4973885;28;20038;-58
2021/06/02 09:46:15;;;;;;;11.37;4.70;;;;;;;;;;4956580;28;20035;-58
2021/06/02 09:48:52;;;;;;;6.47;4.53;;;;;;;;;;4974028;28;20030;-58
2021/06/02 09:51:30;;;;;;;7.47;4.33;;;;;;;;;;4974140;28;20031;-58
2021/06/02 09:53:58;;;;;;;6.50;4.43;;;;;;;;;;4973777;28;20069;-58
2021/06/02 09:56:38;;;;;;;8.67;4.83;;;;;;;;;;4973841;28;20106;-58
2021/06/02 09:59:08;;;;;;;7.67;4.60;;;;;;;;;;4976488;28;20069;-58
2021/06/02 10:01:55;;;;;;;7.20;4.60;;;;;;;;;;4977709;28;20030;-58
2021/06/02 10:04:29;;;;;;;14.03;4.57;;;;;;;;;;4977602;28;20089;-58
2021/06/02 10:06:55;;;;;;;9.20;5.37;;;;;;;;;;4977564;28;20117;-58
2021/06/02 10:09:23;;;;;;;6.90;4.90;;;;;;;;;;4977918;28;20030;-58
2021/06/02 10:12:16;;;;;;;13.13;5.23;;;;;;;;;;4977663;28;20031;-58
2021/06/02 10:15:03;;;;;;;7.87;5.30;;;;;;;;;;4973355;28;20045;-58
2021/06/02 10:17:34;;;;;;;9.60;4.60;;;;;;;;;;4977428;28;20027;-58
2021/06/02 10:20:12;;;;;;;10.17;5.20;;;;;;;;;;4977660;28;20062;-58
2021/06/02 10:22:43;;;;;;;10.17;4.90;;;;;;;;;;4977260;28;20041;-58
2021/06/02 10:25:11;;;;;;;8.03;4.77;;;;;;;;;;4977121;28;20031;-58
2021/06/02 10:27:38;;;;;;;8.50;4.97;;;;;;;;;;4977138;28;20030;-58
2021/06/02 10:30:06;;;;;;;9.07;5.37;;;;;;;;;;4982621;28;20042;-58
2021/06/02 10:32:33;;;;;;;7.33;5.03;;;;;;;;;;4996720;28;20018;-57
2021/06/02 10:35:00;;;;;;;9.10;5.33;;;;;;;;;;4996463;28;20026;-58
2021/06/02 10:37:27;;;;;;;10.60;4.77;;;;;;;;;;4996403;28;20029;-58
2021/06/02 10:40:20;;;;;;;8.83;4.83;;;;;;;;;;4996368;28;20044;-58
2021/06/02 10:42:55;;;;;;;7.87;5.27;;;;;;;;;;4992417;28;20038;-58
2021/06/02 10:45:23;;;;;;;10.23;4.95;;;;;;;;;;4996369;28;20026;-58
2021/06/02 10:47:54;;;;;;;8.53;5.37;;;;;;;;;;4996381;28;20114;-58
2021/06/02 10:50:34;;;;;;;9.83;5.53;;;;;;;;;;4996367;28;20030;-58
2021/06/02 10:53:02;;;;;;;11.13;5.57;;;;;;;;;;4996213;28;20030;-58
2021/06/02 10:55:39;;;;;;;8.93;5.60;;;;;;;;;;4996046;28;20548;-58
2021/06/02 10:58:19;;;;;;;11.63;5.83;;;;;;;;;;4996223;28;20053;-58
2021/06/02 11:00:47;;;;;;;7.83;5.57;;;;;;;;;;4996182;28;20029;-58
2021/06/02 11:03:20;;;;;;;9.73;5.93;;;;;;;;;;4995960;28;20077;-58
2021/06/02 11:05:46;;;;;;;9.90;6.50;;;;;;;;;;4995877;28;20129;-58
2021/06/02 11:08:13;;;;;;;7.70;5.90;;;;;;;;;;4996028;28;20026;-58
2021/06/02 11:10:40;;;;;;;9.93;6.00;;;;;;;;;;4995369;28;20030;-58
2021/06/02 11:13:07;;;;;;;9.73;6.63;;;;;;;;;;4995957;28;20026;-58
2021/06/02 11:15:45;;;;;;;10.80;5.83;;;;;;;;;;4995769;28;20034;-57
2021/06/02 11:18:17;;;;;;;9.27;6.17;;;;;;;;;;4996058;28;20026;-58
2021/06/02 11:20:55;;;;;;;8.87;5.83;;;;;;;;;;4995781;28;20026;-58
2021/06/02 11:23:28;;;;;;;10.67;5.80;;;;;;;;;;4995459;28;20040;-58
2021/06/02 11:26:15;;;;;;;9.97;5.43;;;;;;;;;;4995521;28;20385;-58
2021/06/02 11:28:47;;;;;;;15.30;6.40;;;;;;;;;;4995485;28;20171;-58
2021/06/02 11:31:28;;;;;;;17.87;8.23;;;;;;;;;;4984977;28;20086;-58
2021/06/02 11:34:20;;;;;;;12.13;7.80;;;;;;;;;;4975931;28;20055;-58
2021/06/02 11:37:02;;;;;;;13.90;7.67;;;;;;;;;;4975859;28;20035;-58
2021/06/02 11:39:30;;;;;;;8.73;5.50;;;;;;;;;;4976019;28;20034;-58
2021/06/02 11:41:59;;;;;;;8.10;6.13;;;;;;;;;;4975943;28;20033;-58
2021/06/02 11:44:29;;;;;;;9.67;5.80;;;;;;;;;;4975862;28;20351;-58
2021/06/02 11:46:56;;;;;;;11.97;7.13;;;;;;;;;;4975768;28;20038;-58
2021/06/02 11:49:24;;;;;;;11.77;6.77;;;;;;;;;;4958386;28;20546;-58
2021/06/02 11:51:51;;;;;;;10.47;6.10;;;;;;;;;;4975711;28;20502;-58
2021/06/02 11:54:18;;;;;;;10.67;5.67;;;;;;;;;;4975659;28;20051;-58
2021/06/02 11:56:45;;;;;;;15.93;6.70;;;;;;;;;;4975619;28;20423;-58
2021/06/02 11:59:11;;;;;;;11.40;5.97;;;;;;;;;;4975586;28;20023;-58
2021/06/02 12:01:38;;;;;;;11.80;5.97;;;;;;;;;;4975582;28;20027;-58
2021/06/02 12:04:05;;;;;;;10.77;6.10;;;;;;;;;;4958137;28;20058;-58
2021/06/02 12:06:37;;;;;;;9.73;5.87;;;;;;;;;;4975489;28;20210;-58
2021/06/02 12:09:11;;;;;;;17.60;7.47;;;;;;;;;;4975397;28;20046;-58
2021/06/02 12:11:38;;;;;;;17.30;8.50;;;;;;;;;;4975491;28;20525;-58
2021/06/02 12:14:05;;;;;;;10.07;6.17;;;;;;;;;;4975248;28;20441;-58
2021/06/02 12:16:32;;;;;;;12.20;6.80;;;;;;;;;;4975282;28;20033;-58
2021/06/02 12:19:02;;;;;;;16.00;7.57;;;;;;;;;;4975084;28;20023;-58
2021/06/02 12:21:29;;;;;;;10.70;7.10;;;;;;;;;;4975217;28;20027;-58
2021/06/02 12:24:01;;;;;;;12.57;6.83;;;;;;;;;;4975042;28;20030;-58
2021/06/02 12:26:30;;;;;;;12.20;6.73;;;;;;;;;;4974987;28;20512;-58
2021/06/02 12:28:58;;;;;;;11.13;6.60;;;;;;;;;;4974990;28;20033;-58
2021/06/02 12:31:32;;;;;;;7.50;5.63;;;;;;;;;;4977588;28;20051;-58
2021/06/02 12:34:00;;;;;;;12.30;7.20;;;;;;;;;;4974985;28;20023;-58
2021/06/02 12:36:27;;;;;;;14.00;8.13;;;;;;;;;;4974978;28;20541;-58
2021/06/02 12:38:54;;;;;;;15.30;9.10;;;;;;;;;;4974680;28;20085;-58
2021/06/02 12:41:27;;;;;;;10.90;7.30;;;;;;;;;;4974836;28;20027;-58
2021/06/02 12:43:54;;;;;;;19.60;8.20;;;;;;;;;;4974843;28;20031;-58
2021/06/02 12:46:20;;;;;;;17.03;8.70;;;;;;;;;;4974828;28;20031;-58
2021/06/02 12:48:47;;;;;;;12.07;7.57;;;;;;;;;;4974801;28;20116;-58
2021/06/02 12:51:17;;;;;;;13.57;7.20;;;;;;;;;;4974741;28;20051;-58
2021/06/02 12:53:47;;;;;;;12.60;8.30;;;;;;;;;;4974618;28;20026;-58
2021/06/02 12:56:15;;;;;;;17.23;10.00;;;;;;;;;;4974603;28;20022;-58
2021/06/02 12:58:44;;;;;;;10.77;8.20;;;;;;;;;;4974417;28;20030;-58
2021/06/02 13:01:15;;;;;;;17.03;8.80;;;;;;;;;;4974630;28;20050;-58
2021/06/02 13:03:46;;;;;;;9.70;7.93;;;;;;;;;;4974428;28;20030;-58
2021/06/02 13:06:16;;;;;;;16.67;7.77;;;;;;;;;;4974313;28;20043;-58
2021/06/02 13:08:43;;;;;;;10.77;8.40;;;;;;;;;;4974351;28;20367;-58
2021/06/02 13:11:11;;;;;;;12.53;7.00;;;;;;;;;;4974447;28;20031;-58
2021/06/02 13:13:39;;;;;;;11.83;8.13;;;;;;;;;;4974238;28;20026;-58
2021/06/02 13:16:07;;;;;;;14.50;8.17;;;;;;;;;;4974226;28;20560;-58
2021/06/02 13:18:34;;;;;;;11.63;7.47;;;;;;;;;;4974120;28;20026;-58
2021/06/02 13:21:11;;;;;;;11.07;7.70;;;;;;;;;;4974295;28;20082;-57
2021/06/02 13:23:39;;;;;;;14.60;7.70;;;;;;;;;;4974077;28;20030;-58
2021/06/02 13:26:10;;;;;;;13.33;7.10;;;;;;;;;;4974169;28;20117;-58
2021/06/02 13:28:52;;;;;;;19.83;7.57;;;;;;;;;;4974052;28;20027;-58
2021/06/02 13:31:37;;;;;;;14.23;8.37;;;;;;;;;;4987108;28;20076;-58
2021/06/02 13:34:04;;;;;;;16.20;8.63;;;;;;;;;;4992960;28;20089;-58
2021/06/02 13:36:32;;;;;;;15.33;7.60;;;;;;;;;;4993556;28;20035;-59
2021/06/02 13:39:29;;;;;;;11.93;7.93;;;;;;;;;;4993140;28;20030;-58
2021/06/02 13:42:06;;;;;;;12.57;7.87;;;;;;;;;;4985314;28;20022;-58
2021/06/02 13:44:33;;;;;;;13.73;8.30;;;;;;;;;;4993095;28;20429;-58
2021/06/02 13:47:11;;;;;;;12.30;8.03;;;;;;;;;;4993535;28;20126;-58
2021/06/02 13:49:44;;;;;;;11.00;7.67;;;;;;;;;;4990461;28;20405;-58
2021/06/02 13:52:16;;;;;;;15.20;7.47;;;;;;;;;;4993284;28;20026;-58
2021/06/02 13:54:48;;;;;;;12.13;7.20;;;;;;;;;;4975857;28;20026;-58
2021/06/02 13:57:25;;;;;;;12.93;8.20;;;;;;;;;;4992970;28;20053;-58
2021/06/02 13:59:58;;;;;;;12.03;7.57;;;;;;;;;;4993273;28;20022;-58
2021/06/02 14:02:33;;;;;;;13.63;7.63;;;;;;;;;;4975864;28;20037;-58
2021/06/02 14:05:04;;;;;;;13.90;7.33;;;;;;;;;;4992933;28;20504;-58
2021/06/02 14:07:31;;;;;;;11.07;6.57;;;;;;;;;;4992983;28;20030;-58
2021/06/02 14:09:58;;;;;;;11.43;6.90;;;;;;;;;;4976266;28;20014;-58
2021/06/02 14:12:44;;;;;;;11.30;6.27;;;;;;;;;;4993133;28;20046;-58
2021/06/02 14:15:19;;;;;;;15.17;7.13;;;;;;;;;;4993196;28;20030;-58
2021/06/02 14:17:46;;;;;;;12.55;6.50;;;;;;;;;;4993145;28;20057;-58
2021/06/02 14:20:13;;;;;;;14.33;6.90;;;;;;;;;;4992735;28;20030;-58
2021/06/02 14:22:40;;;;;;;11.10;6.23;;;;;;;;;;4993097;28;20103;-58
2021/06/02 14:25:09;;;;;;;8.63;6.30;;;;;;;;;;4992852;28;20065;-58
2021/06/02 14:27:35;;;;;;;13.07;6.83;;;;;;;;;;4992836;28;20042;-58
2021/06/02 14:30:03;;;;;;;10.23;6.70;;;;;;;;;;4993027;28;20381;-58
2021/06/02 14:32:29;;;;;;;12.80;7.20;;;;;;;;;;4992087;28;20106;-58
2021/06/02 14:35:00;;;;;;;14.97;6.70;;;;;;;;;;4992893;28;20042;-58
2021/06/02 14:37:49;;;;;;;9.73;6.37;;;;;;;;;;4992371;28;20026;-58
2021/06/02 14:40:22;;;;;;;12.40;6.90;;;;;;;;;;4987916;28;20089;-58
2021/06/02 14:42:49;;;;;;;18.10;8.27;;;;;;;;;;4993014;28;20034;-58
2021/06/02 14:45:16;;;;;;;16.50;9.00;;;;;;;;;;4994042;28;20497;-58
2021/06/02 14:47:46;;;;;;;11.27;7.60;;;;;;;;;;4996387;28;20034;-58
2021/06/02 14:50:13;;;;;;;14.73;7.27;;;;;;;;;;4996342;28;20034;-59
2021/06/02 14:52:40;;;;;;;14.70;8.17;;;;;;;;;;4996299;28;20022;-58
2021/06/02 14:55:06;;;;;;;12.67;7.77;;;;;;;;;;4996555;28;20034;-58
2021/06/02 14:57:33;;;;;;;12.63;7.30;;;;;;;;;;4996042;28;20038;-58
2021/06/02 15:00:00;;;;;;;9.27;6.37;;;;;;;;;;4996226;28;20031;-58
2021/06/02 15:02:33;;;;;;;11.13;6.57;;;;;;;;;;4996198;28;20018;-58
2021/06/02 15:05:07;;;;;;;11.40;7.43;;;;;;;;;;4995808;28;20085;-58
2021/06/02 15:07:33;;;;;;;14.07;7.13;;;;;;;;;;4995837;28;20030;-57
2021/06/02 15:10:00;;;;;;;15.03;7.30;;;;;;;;;;4995955;28;20378;-57